Time;durP1;ratioP1;P1;durP2;ratioP2;P2;SDS_P1;SDS_P2;PMS_P1;PMS_P2;Temp;Humidity;BMP_temperature;BMP_pressure;BME280_temperature;BME280_humidity;BME280_pressure;Samples;Min_cycle;Max_cycle;Signal;HPM_P1;HPM_P2
2022/07/15 00:00:07;;;;;;;4.82;2.20;;;12.00;99.90;;;;;;5122227;27;20035;-23
2022/07/15 00:02:33;;;;;;;4.70;2.75;;;12.00;99.90;;;;;;5109921;28;20180;-23
2022/07/15 00:04:58;;;;;;;4.78;2.55;;;11.90;99.90;;;;;;5113640;27;20027;-23
2022/07/15 00:07:24;;;;;;;5.75;2.45;;;11.90;99.90;;;;;;5112750;28;20034;-23
2022/07/15 00:12:35;;;;;;;5.82;2.28;;;11.90;99.90;;;;;;5130477;27;20054;-23
2022/07/15 00:15:01;;;;;;;7.25;2.83;;;11.90;99.90;;;;;;5124554;27;20121;-23
2022/07/15 00:17:26;;;;;;;6.20;2.75;;;11.90;99.90;;;;;;5119280;27;20038;-23
2022/07/15 00:19:52;;;;;;;6.38;2.38;;;11.90;99.90;;;;;;5124911;27;20099;-23
2022/07/15 00:22:18;;;;;;;5.47;2.10;;;11.90;99.90;;;;;;5130980;27;20031;-23
2022/07/15 00:24:44;;;;;;;2.65;2.28;;;11.80;99.90;;;;;;5093504;27;20042;-23
2022/07/15 00:27:09;;;;;;;5.38;2.53;;;11.80;99.90;;;;;;5129705;27;20035;-23
2022/07/15 00:29:35;;;;;;;4.63;2.50;;;11.70;99.90;;;;;;5135120;27;20472;-22
2022/07/15 00:32:01;;;;;;;3.60;2.30;;;11.70;99.90;;;;;;5131806;27;20078;-23
2022/07/15 00:34:26;;;;;;;4.78;2.38;;;11.70;99.90;;;;;;5125706;27;20035;-23
2022/07/15 00:36:52;;;;;;;4.10;2.00;;;11.70;99.90;;;;;;5124759;27;20038;-23
2022/07/15 00:39:18;;;;;;;8.05;2.72;;;11.70;99.90;;;;;;5130030;27;20067;-23
2022/07/15 00:41:44;;;;;;;4.82;2.33;;;11.70;99.90;;;;;;5122643;27;20484;-23
2022/07/15 00:44:11;;;;;;;6.78;2.90;;;11.60;99.90;;;;;;5123623;27;20044;-23
2022/07/15 00:46:37;;;;;;;5.70;2.42;;;11.60;99.90;;;;;;5131110;27;20031;-23
2022/07/15 00:49:06;;;;;;;5.88;2.50;;;11.60;99.90;;;;;;5123217;27;20093;-23
2022/07/15 00:51:42;;;;;;;4.53;2.00;;;11.70;99.90;;;;;;5131560;28;20043;-23
2022/07/15 00:54:11;;;;;;;6.30;2.95;;;11.80;99.90;;;;;;5118520;28;20040;-23
2022/07/15 00:56:41;;;;;;;5.82;2.28;;;11.80;99.90;;;;;;5131406;28;20114;-23
2022/07/15 00:59:07;;;;;;;7.60;2.70;;;11.90;99.90;;;;;;5112930;28;20031;-23
2022/07/15 01:01:36;;;;;;;6.63;2.53;;;12.00;99.90;;;;;;5145660;27;20092;-23
2022/07/15 01:04:04;;;;;;;9.00;2.70;;;12.10;99.90;;;;;;5125655;28;20040;-23
2022/07/15 01:06:32;;;;;;;5.07;2.40;;;12.20;99.90;;;;;;5114566;28;20071;-23
2022/07/15 01:08:58;;;;;;;4.35;2.53;;;12.30;99.90;;;;;;5131453;28;20437;-23
2022/07/15 01:11:25;;;;;;;5.20;2.80;;;12.30;99.90;;;;;;5129852;28;20047;-23
2022/07/15 01:13:51;;;;;;;5.53;2.30;;;12.40;99.90;;;;;;5112812;28;20043;-23
2022/07/15 01:16:16;;;;;;;6.00;2.58;;;12.40;99.90;;;;;;5129295;28;20110;-23
2022/07/15 01:18:42;;;;;;;9.10;3.53;;;12.50;99.90;;;;;;5127490;27;20590;-26
2022/07/15 01:21:08;;;;;;;7.18;3.00;;;12.50;99.90;;;;;;5117087;27;20058;-26
2022/07/15 01:23:34;;;;;;;5.95;2.83;;;12.50;99.90;;;;;;5124105;27;20035;-24
2022/07/15 01:26:00;;;;;;;7.03;2.88;;;12.60;99.90;;;;;;5116389;27;20035;-24
2022/07/15 01:28:26;;;;;;;10.95;3.35;;;12.60;99.90;;;;;;5126541;27;20039;-24
2022/07/15 01:30:55;;;;;;;9.93;2.95;;;12.70;99.90;;;;;;5124630;27;20046;-24
2022/07/15 01:33:20;;;;;;;5.57;2.72;;;12.70;99.90;;;;;;5129454;27;20553;-24
2022/07/15 01:35:46;;;;;;;6.97;3.17;;;12.70;99.90;;;;;;5134559;27;20123;-24
2022/07/15 01:38:12;;;;;;;8.73;2.70;;;12.80;99.90;;;;;;5135071;27;20038;-24
2022/07/15 01:40:37;;;;;;;7.00;2.92;;;12.80;99.90;;;;;;5127856;22;20059;-86
2022/07/15 01:43:03;;;;;;;12.48;3.20;;;12.80;99.90;;;;;;5069079;28;20075;-86
2022/07/15 01:45:29;;;;;;;5.13;2.92;;;12.80;99.90;;;;;;5063426;28;20706;-87
2022/07/15 01:47:55;;;;;;;6.03;3.25;;;12.80;99.90;;;;;;5053434;28;20029;-87
2022/07/15 01:50:20;;;;;;;5.07;2.40;;;12.90;99.90;;;;;;5059486;28;20062;-87
2022/07/15 01:52:46;;;;;;;4.88;2.42;;;12.90;99.90;;;;;;5058722;28;20063;-87
2022/07/15 01:55:12;;;;;;;6.82;2.55;;;13.00;99.90;;;;;;5060338;28;20036;-87
2022/07/15 01:57:38;;;;;;;6.65;2.97;;;13.00;99.90;;;;;;5064176;28;20032;-87
2022/07/15 02:00:06;;;;;;;6.00;2.45;;;13.00;99.90;;;;;;5064170;28;20043;-87
2022/07/15 02:02:32;;;;;;;9.45;2.60;;;13.00;99.90;;;;;;5073327;28;20032;-88
2022/07/15 02:04:58;;;;;;;6.60;2.72;;;13.10;99.90;;;;;;5051575;28;20040;-87
2022/07/15 02:07:26;;;;;;;8.48;2.67;;;13.10;99.90;;;;;;5044498;28;20036;-86
2022/07/15 02:09:51;;;;;;;4.53;2.20;;;13.10;99.90;;;;;;5050491;28;20040;-87
2022/07/15 02:12:17;;;;;;;6.22;2.40;;;13.20;99.90;;;;;;5042463;28;20048;-87
2022/07/15 02:14:43;;;;;;;6.25;2.40;;;13.20;99.90;;;;;;5075911;28;20019;-87
2022/07/15 02:17:09;;;;;;;7.93;2.30;;;13.20;99.90;;;;;;5048939;28;20040;-86
2022/07/15 02:19:34;;;;;;;8.77;2.90;;;13.20;99.90;;;;;;5044059;28;20075;-87
2022/07/15 02:22:00;;;;;;;6.65;2.33;;;13.30;99.90;;;;;;5074851;28;20039;-87
2022/07/15 02:24:26;;;;;;;8.90;2.28;;;13.30;99.90;;;;;;5067204;28;20038;-86
2022/07/15 02:26:52;;;;;;;5.05;2.17;;;13.20;99.90;;;;;;5061344;28;20186;-87
2022/07/15 02:29:18;;;;;;;5.93;2.00;;;13.30;99.90;;;;;;5071675;28;20479;-87
2022/07/15 02:31:43;;;;;;;6.53;2.30;;;13.20;99.90;;;;;;5044968;28;20033;-87
2022/07/15 02:34:09;;;;;;;7.35;1.98;;;13.20;99.90;;;;;;5050704;28;20105;-87
2022/07/15 02:36:36;;;;;;;4.53;1.83;;;13.20;99.90;;;;;;5073996;28;20063;-87
2022/07/15 02:39:02;;;;;;;4.97;2.15;;;13.20;99.90;;;;;;5047560;28;20043;-86
2022/07/15 02:41:29;;;;;;;6.60;2.05;;;13.20;99.90;;;;;;5075116;28;20032;-87
2022/07/15 02:43:55;;;;;;;7.40;2.85;;;13.10;99.90;;;;;;5048373;28;20502;-87
2022/07/15 02:46:21;;;;;;;7.72;2.40;;;13.10;99.90;;;;;;5074036;28;20036;-87
2022/07/15 02:48:47;;;;;;;5.18;1.98;;;13.00;99.90;;;;;;5045161;28;20028;-86
2022/07/15 02:51:13;;;;;;;6.78;2.15;;;13.00;99.90;;;;;;5056887;28;20109;-87
2022/07/15 02:53:39;;;;;;;7.68;2.20;;;12.90;99.90;;;;;;5062559;28;20570;-87
2022/07/15 02:56:06;;;;;;;5.78;1.80;;;12.90;99.90;;;;;;5045274;28;20044;-86
2022/07/15 02:58:32;;;;;;;8.02;2.60;;;12.80;99.90;;;;;;5065420;28;20153;-87
2022/07/15 03:00:59;;;;;;;6.38;2.03;;;12.80;99.90;;;;;;5071211;28;20047;-86
2022/07/15 03:03:28;;;;;;;7.97;2.70;;;12.80;99.90;;;;;;5048901;28;20049;-87
2022/07/15 03:05:58;;;;;;;6.60;2.78;;;12.70;99.90;;;;;;5050762;28;20640;-86
2022/07/15 03:08:23;;;;;;;6.03;2.03;;;12.70;99.90;;;;;;5043307;28;20063;-86
2022/07/15 03:10:49;;;;;;;4.10;2.00;;;12.60;99.90;;;;;;5073997;28;20486;-86
2022/07/15 03:13:15;;;;;;;6.95;2.30;;;12.60;99.90;;;;;;5071463;28;20032;-86
2022/07/15 03:15:41;;;;;;;4.90;1.95;;;12.50;99.90;;;;;;5049700;28;20060;-86
2022/07/15 03:18:07;;;;;;;7.20;2.30;;;12.50;99.90;;;;;;5046153;28;20064;-86
2022/07/15 03:20:35;;;;;;;7.75;2.33;;;12.40;99.90;;;;;;5056774;28;20040;-86
2022/07/15 03:23:01;;;;;;;5.95;2.08;;;12.40;99.90;;;;;;5061915;28;20044;-86
2022/07/15 03:25:27;;;;;;;7.45;2.42;;;12.30;99.90;;;;;;5063944;28;20043;-86
2022/07/15 03:27:52;;;;;;;9.65;2.88;;;12.30;99.90;;;;;;5060550;28;20035;-86
2022/07/15 03:30:18;;;;;;;6.82;2.22;;;12.20;99.90;;;;;;5062608;28;20073;-87
2022/07/15 03:32:44;;;;;;;6.40;3.00;;;12.20;99.90;;;;;;5042586;28;20028;-86
2022/07/15 03:35:10;;;;;;;6.15;2.60;;;12.10;99.90;;;;;;5061708;28;20039;-87
2022/07/15 03:37:35;;;;;;;6.10;2.70;;;12.10;99.90;;;;;;5043621;28;20040;-87
2022/07/15 03:40:01;;;;;;;6.30;2.80;;;12.10;99.90;;;;;;5042843;28;20047;-86
2022/07/15 03:42:27;;;;;;;7.15;2.38;;;12.10;99.90;;;;;;5059326;28;20116;-89
2022/07/15 03:44:52;;;;;;;8.50;2.97;;;12.00;99.90;;;;;;5062480;28;20040;-87
2022/07/15 03:47:18;;;;;;;6.28;2.75;;;12.00;99.90;;;;;;5049819;28;20076;-87
2022/07/15 03:49:44;;;;;;;4.65;2.92;;;12.00;99.90;;;;;;5056127;28;20039;-89
2022/07/15 03:52:09;;;;;;;9.98;2.92;;;11.90;99.90;;;;;;5049269;28;20044;-87
2022/07/15 03:54:35;;;;;;;7.57;3.03;;;11.90;99.90;;;;;;5049666;28;20032;-87
2022/07/15 03:57:01;;;;;;;6.57;2.72;;;11.90;99.90;;;;;;5072676;28;20355;-87
2022/07/15 03:59:27;;;;;;;5.18;2.70;;;11.80;99.90;;;;;;5064234;28;20047;-87
2022/07/15 04:01:53;;;;;;;9.43;3.45;;;11.80;99.90;;;;;;5049719;28;20046;-87
2022/07/15 04:04:19;;;;;;;9.45;3.20;;;11.80;99.90;;;;;;5061280;28;20056;-87
2022/07/15 04:06:44;;;;;;;7.20;2.75;;;11.80;99.90;;;;;;5068151;28;20032;-87
2022/07/15 04:09:11;;;;;;;6.35;2.85;;;11.80;99.90;;;;;;5062005;28;20044;-87
2022/07/15 04:11:42;;;;;;;6.40;3.00;;;11.80;99.90;;;;;;5047552;28;20457;-87
2022/07/15 04:14:10;;;;;;;6.28;3.15;;;11.80;99.90;;;;;;5050965;28;20046;-88
2022/07/15 04:16:36;;;;;;;6.60;3.10;;;11.80;99.90;;;;;;5057305;28;20033;-87
2022/07/15 04:19:01;;;;;;;7.47;2.78;;;11.80;99.90;;;;;;5046241;28;20037;-87
2022/07/15 04:21:27;;;;;;;5.90;2.75;;;11.80;99.90;;;;;;5050925;28;20040;-87
2022/07/15 04:23:53;;;;;;;8.52;3.15;;;11.90;99.90;;;;;;5063984;28;20399;-87
2022/07/15 04:26:18;;;;;;;11.43;3.22;;;11.90;99.90;;;;;;5046711;28;20037;-87
2022/07/15 04:28:44;;;;;;;10.35;2.60;;;11.90;99.90;;;;;;5047264;28;20031;-87
2022/07/15 04:31:10;;;;;;;7.88;2.95;;;11.90;99.90;;;;;;5058649;28;20552;-87
2022/07/15 04:33:35;;;;;;;9.95;2.83;;;11.90;99.90;;;;;;5044850;28;20025;-85
2022/07/15 04:36:01;;;;;;;4.78;2.60;;;11.90;99.90;;;;;;5053674;28;20048;-84
2022/07/15 04:38:27;;;;;;;6.72;2.63;;;11.90;99.90;;;;;;5068609;28;20032;-84
2022/07/15 04:40:52;;;;;;;6.93;2.97;;;12.00;99.90;;;;;;5045684;28;20039;-85
2022/07/15 04:43:18;;;;;;;6.03;2.78;;;12.00;99.90;;;;;;5062217;28;20040;-85
2022/07/15 04:45:44;;;;;;;10.77;2.92;;;12.00;99.90;;;;;;5049728;28;20047;-84
2022/07/15 04:50:53;;;;;;;;;;;12.10;99.90;;;;;;5060023;28;20047;-85
2022/07/15 04:53:20;;;;;;;3.92;2.65;;;12.10;99.90;;;;;;5069660;28;19949;-85
2022/07/15 04:55:47;;;;;;;6.43;3.10;;;12.20;99.90;;;;;;5059989;28;20399;-85
2022/07/15 04:58:14;;;;;;;4.50;2.33;;;12.20;99.90;;;;;;5039611;28;20780;-88
2022/07/15 05:00:41;;;;;;;7.82;2.70;;;12.20;99.90;;;;;;5042848;28;20051;-88
2022/07/15 05:03:07;;;;;;;7.80;2.42;;;12.30;99.90;;;;;;5054650;28;20044;-88
2022/07/15 05:05:33;;;;;;;7.28;2.38;;;12.40;99.90;;;;;;5052992;28;20028;-88
2022/07/15 05:07:59;;;;;;;6.35;2.30;;;12.40;99.90;;;;;;5051830;28;20032;-88
2022/07/15 05:10:24;;;;;;;8.45;3.15;;;12.50;99.90;;;;;;5055834;28;20456;-88
2022/07/15 05:12:50;;;;;;;8.10;2.50;;;12.60;99.90;;;;;;5050454;28;20052;-88
2022/07/15 05:15:15;;;;;;;3.47;2.10;;;12.60;99.90;;;;;;5063437;28;20040;-88
2022/07/15 05:17:41;;;;;;;6.90;2.10;;;12.60;99.90;;;;;;5059257;28;20550;-88
2022/07/15 05:20:07;;;;;;;7.80;2.75;;;12.70;99.90;;;;;;5048208;28;20517;-88
2022/07/15 05:22:33;;;;;;;5.13;2.00;;;12.80;99.90;;;;;;5067915;28;20165;-88
2022/07/15 05:24:59;;;;;;;4.85;2.53;;;12.80;99.90;;;;;;5055658;28;20048;-88
2022/07/15 05:27:24;;;;;;;7.10;2.47;;;12.90;99.90;;;;;;5055046;28;20032;-88
2022/07/15 05:29:50;;;;;;;4.68;2.00;;;13.00;99.90;;;;;;5067813;28;20329;-88
2022/07/15 05:32:16;;;;;;;4.07;2.05;;;13.10;99.90;;;;;;5050613;28;20127;-88
2022/07/15 05:34:41;;;;;;;8.40;2.00;;;13.20;99.90;;;;;;5038625;28;20294;-88
2022/07/15 05:37:07;;;;;;;4.57;2.20;;;13.30;99.90;;;;;;5053281;28;20037;-88
2022/07/15 05:39:34;;;;;;;5.03;2.38;;;13.40;99.90;;;;;;5048510;28;20482;-88
2022/07/15 05:42:00;;;;;;;6.18;2.00;;;13.50;99.90;;;;;;5067245;28;20052;-88
2022/07/15 05:44:25;;;;;;;6.05;2.38;;;13.60;99.90;;;;;;5036395;28;20407;-88
2022/07/15 05:46:51;;;;;;;6.22;2.35;;;13.70;99.90;;;;;;5053318;28;20218;-88
2022/07/15 05:49:17;;;;;;;4.15;1.60;;;13.90;99.90;;;;;;5042708;28;20094;-88
2022/07/15 05:51:43;;;;;;;7.25;1.88;;;14.00;99.90;;;;;;5057813;28;20041;-88
2022/07/15 05:54:08;;;;;;;4.40;1.63;;;14.00;99.90;;;;;;5062166;28;20123;-88
2022/07/15 05:56:34;;;;;;;6.15;2.60;;;14.10;99.90;;;;;;5057961;28;20112;-88
2022/07/15 05:59:00;;;;;;;6.53;2.15;;;14.20;99.90;;;;;;5058162;28;20093;-89
2022/07/15 06:01:26;;;;;;;3.97;1.60;;;14.30;99.90;;;;;;5068542;28;20039;-89
2022/07/15 06:03:52;;;;;;;5.75;1.80;;;14.30;99.90;;;;;;5053825;28;20036;-86
2022/07/15 06:06:18;;;;;;;3.10;1.88;;;14.40;99.90;;;;;;5063292;28;20040;-86
2022/07/15 06:08:44;;;;;;;5.95;2.08;;;14.40;99.90;;;;;;5068652;28;20044;-89
2022/07/15 06:11:11;;;;;;;6.32;2.03;;;14.40;99.90;;;;;;5061011;28;20422;-87
2022/07/15 06:13:38;;;;;;;4.82;1.60;;;14.50;99.90;;;;;;5048007;28;20036;-88
2022/07/15 06:16:04;;;;;;;3.63;1.48;;;14.50;99.90;;;;;;5062528;28;20044;-88
2022/07/15 06:18:30;;;;;;;2.55;1.80;;;14.50;99.90;;;;;;5061704;28;20079;-86
2022/07/15 06:20:56;;;;;;;2.67;1.63;;;14.50;99.90;;;;;;5082840;28;20075;-86
2022/07/15 06:23:22;;;;;;;4.68;1.52;;;14.60;99.90;;;;;;5066077;28;20089;-85
2022/07/15 06:25:47;;;;;;;4.38;1.60;;;14.70;99.90;;;;;;5052364;28;20082;-89
2022/07/15 06:28:13;;;;;;;6.60;1.80;;;14.80;99.90;;;;;;5068711;28;20141;-87
2022/07/15 06:30:39;;;;;;;6.10;1.80;;;14.80;99.90;;;;;;5049931;28;20059;-88
2022/07/15 06:33:05;;;;;;;4.63;1.48;;;14.90;99.90;;;;;;5049817;28;20068;-89
2022/07/15 06:35:30;;;;;;;5.55;1.77;;;14.80;99.90;;;;;;5072480;28;20028;-89
2022/07/15 06:37:56;;;;;;;3.58;1.42;;;14.80;99.90;;;;;;5054424;28;20107;-86
2022/07/15 06:40:22;;;;;;;3.53;1.40;;;14.80;99.90;;;;;;5065111;28;20068;-87
2022/07/15 06:42:47;;;;;;;4.90;1.65;;;14.90;99.90;;;;;;5058771;28;20040;-87
2022/07/15 06:45:13;;;;;;;2.95;1.55;;;15.00;99.90;;;;;;5066835;28;20040;-90
2022/07/15 06:47:42;;;;;;;1.90;1.20;;;15.10;99.90;;;;;;5043058;28;20052;-90
2022/07/15 06:50:09;;;;;;;3.05;1.60;;;15.20;99.90;;;;;;5061669;28;20045;-89
2022/07/15 06:52:35;;;;;;;3.25;1.42;;;15.30;99.90;;;;;;5068153;28;20037;-88
2022/07/15 06:55:01;;;;;;;3.10;1.00;;;15.30;99.90;;;;;;5052597;28;20044;-90
2022/07/15 06:57:28;;;;;;;3.42;1.13;;;15.50;99.90;;;;;;5074047;28;20088;-87
2022/07/15 06:59:54;;;;;;;3.72;1.33;;;15.60;99.90;;;;;;5063983;28;20032;-87
2022/07/15 07:02:19;;;;;;;2.80;0.75;;;15.80;99.90;;;;;;5042564;28;20040;-89
2022/07/15 07:04:45;;;;;;;3.45;1.00;;;15.90;99.90;;;;;;5051903;28;20024;-90
2022/07/15 07:07:11;;;;;;;2.95;0.95;;;16.10;99.90;;;;;;5066355;28;20036;-87
2022/07/15 07:09:36;;;;;;;3.47;1.00;;;16.30;99.90;;;;;;5064915;28;20344;-88
2022/07/15 07:12:03;;;;;;;2.15;0.80;;;16.40;99.90;;;;;;5055440;28;20460;-89
2022/07/15 07:14:28;;;;;;;2.85;0.90;;;16.60;99.90;;;;;;5070641;28;20036;-90
2022/07/15 07:16:54;;;;;;;3.28;0.90;;;16.70;99.90;;;;;;5040830;28;20041;-88
2022/07/15 07:19:20;;;;;;;1.70;0.65;;;16.80;99.90;;;;;;5069042;28;20047;-87
2022/07/15 07:21:45;;;;;;;3.72;0.88;;;16.90;99.90;;;;;;5072581;28;20034;-90
2022/07/15 07:24:11;;;;;;;3.65;0.88;;;17.00;99.90;;;;;;5061322;28;20068;-90
2022/07/15 07:26:37;;;;;;;1.85;0.75;;;17.20;99.90;;;;;;5036488;28;20067;-89
2022/07/15 07:29:03;;;;;;;3.35;0.98;;;17.30;99.90;;;;;;5056156;28;20037;-90
2022/07/15 07:31:29;;;;;;;3.75;0.65;;;17.40;99.90;;;;;;5044029;28;20036;-87
2022/07/15 07:33:56;;;;;;;1.70;0.80;;;17.50;99.90;;;;;;5046070;28;20047;-88
2022/07/15 07:36:21;;;;;;;3.85;0.98;;;17.60;99.90;;;;;;5044778;28;20051;-90
2022/07/15 07:38:48;;;;;;;2.63;0.60;;;17.80;99.90;;;;;;5045972;28;20063;-88
2022/07/15 07:41:13;;;;;;;2.65;0.98;;;17.90;99.90;;;;;;5045553;28;20040;-87
2022/07/15 07:43:39;;;;;;;2.55;0.82;;;18.10;99.90;;;;;;5045347;28;20040;-92
2022/07/15 07:46:05;;;;;;;1.13;0.57;;;18.30;99.90;;;;;;5043428;28;20041;-88
2022/07/15 07:48:33;;;;;;;2.15;0.85;;;18.50;99.90;;;;;;5062087;28;20035;-91
2022/07/15 07:50:59;;;;;;;2.80;0.65;;;18.70;99.90;;;;;;5064769;28;20502;-90
2022/07/15 07:53:26;;;;;;;1.02;0.60;;;18.90;99.90;;;;;;5057157;28;20075;-90
2022/07/15 07:55:51;;;;;;;3.63;0.75;;;19.00;99.90;;;;;;5064453;28;20450;-88
2022/07/15 07:58:20;;;;;;;3.97;0.60;;;19.10;99.90;;;;;;5059210;28;20039;-90
2022/07/15 08:00:51;;;;;;;2.55;0.50;;;18.80;99.90;;;;;;5049605;28;20044;-91
2022/07/15 08:03:17;;;;;;;1.38;0.60;;;18.80;99.90;;;;;;5083320;28;20423;-89
2022/07/15 08:05:42;;;;;;;2.47;0.47;;;18.80;99.90;;;;;;5052029;28;20044;-91
2022/07/15 08:08:16;;;;;;;1.38;0.52;;;18.70;99.90;;;;;;5068663;28;20048;-89
2022/07/15 08:10:44;;;;;;;1.25;0.55;;;19.00;99.90;;;;;;5063958;28;20044;-91
2022/07/15 08:13:12;;;;;;;3.05;0.68;;;19.20;99.90;;;;;;5049809;28;20104;-89
2022/07/15 08:15:44;;;;;;;1.40;0.70;;;19.30;99.90;;;;;;5069909;28;20041;-91
2022/07/15 08:18:09;;;;;;;3.30;0.60;;;19.30;99.90;;;;;;5066742;28;20042;-90
2022/07/15 08:20:36;;;;;;;2.28;0.93;;;19.10;99.90;;;;;;5059477;28;20036;-89
2022/07/15 08:23:02;;;;;;;0.93;0.60;;;19.10;99.90;;;;;;5047443;28;20036;-88
2022/07/15 08:25:30;;;;;;;1.23;0.43;;;19.50;99.90;;;;;;5058051;28;20495;-87
2022/07/15 08:27:59;;;;;;;1.55;0.45;;;19.80;99.90;;;;;;5049286;28;20044;-88
2022/07/15 08:30:27;;;;;;;2.45;0.60;;;20.00;99.40;;;;;;5040376;28;20036;-87
2022/07/15 08:32:54;;;;;;;2.33;0.50;;;19.80;96.60;;;;;;5044577;28;20028;-89
2022/07/15 08:35:19;;;;;;;2.55;0.55;;;19.70;97.00;;;;;;5052247;28;20040;-87
2022/07/15 08:37:45;;;;;;;1.50;0.50;;;19.60;98.10;;;;;;5049611;28;20047;-87
2022/07/15 08:40:11;;;;;;;1.92;0.65;;;20.10;99.90;;;;;;5052417;28;20040;-88
2022/07/15 08:42:43;;;;;;;0.73;0.30;;;20.00;96.60;;;;;;5058640;28;20121;-88
2022/07/15 08:45:10;;;;;;;0.80;0.40;;;20.10;93.70;;;;;;5064186;28;20046;-89
2022/07/15 08:47:38;;;;;;;1.63;0.40;;;20.20;90.30;;;;;;5055238;28;20764;-87
2022/07/15 08:50:04;;;;;;;1.10;0.47;;;20.10;91.90;;;;;;5042742;28;20125;-88
2022/07/15 08:52:34;;;;;;;1.15;0.63;;;19.90;93.40;;;;;;5028739;28;20067;-88
2022/07/15 08:55:00;;;;;;;2.05;0.57;;;19.70;94.20;;;;;;5043950;28;20055;-88
2022/07/15 08:57:26;;;;;;;3.60;0.63;;;19.50;95.30;;;;;;5045046;28;20046;-87
2022/07/15 08:59:52;;;;;;;1.75;0.65;;;19.20;95.30;;;;;;5055359;28;20029;-87
2022/07/15 09:02:23;;;;;;;0.80;0.45;;;19.40;95.30;;;;;;5056651;28;20556;-88
2022/07/15 09:05:22;;;;;;;1.17;0.57;;;19.70;96.50;;;;;;5066577;28;20115;-82
2022/07/15 09:08:07;;;;;;;1.15;0.45;;;20.20;94.10;;;;;;5076004;28;20044;-79
2022/07/15 09:10:52;;;;;;;1.42;0.40;;;20.80;92.40;;;;;;5084813;28;20115;-89
2022/07/15 09:13:39;;;;;;;1.85;0.50;;;21.10;83.60;;;;;;5047610;28;20036;-90
2022/07/15 09:16:11;;;;;;;0.60;0.40;;;21.10;70.80;;;;;;5054052;28;20056;-88
2022/07/15 09:18:39;;;;;;;0.98;0.45;;;20.80;68.70;;;;;;5052707;28;20043;-88
2022/07/15 09:21:19;;;;;;;0.80;0.35;;;20.90;77.50;;;;;;5069618;28;20051;-90
2022/07/15 09:23:45;;;;;;;2.10;0.45;;;21.30;75.90;;;;;;5048957;28;20047;-88
2022/07/15 09:26:35;;;;;;;1.52;0.57;;;21.80;82.00;;;;;;5057359;28;20044;-89
2022/07/15 09:29:02;;;;;;;1.25;0.50;;;21.50;67.80;;;;;;5049599;28;20043;-90
2022/07/15 09:34:19;;;;;;;1.52;0.45;;;20.80;74.70;;;;;;5069711;28;20040;-88
2022/07/15 09:36:50;;;;;;;2.65;0.50;;;20.50;83.80;;;;;;5070458;28;20075;-89
2022/07/15 09:39:17;;;;;;;2.35;0.40;;;20.20;87.20;;;;;;5042631;28;20075;-88
2022/07/15 09:41:45;;;;;;;0.98;0.40;;;19.90;90.20;;;;;;5064373;28;20036;-88
2022/07/15 09:44:19;;;;;;;1.27;0.40;;;20.00;91.10;;;;;;5051032;28;20065;-89
2022/07/15 09:46:54;;;;;;;1.05;0.50;;;20.30;88.30;;;;;;5048104;28;20036;-89
2022/07/15 09:49:23;;;;;;;1.08;0.60;;;21.20;92.50;;;;;;5073146;28;20044;-88
2022/07/15 09:51:54;;;;;;;1.23;0.50;;;21.60;83.70;;;;;;5060787;28;20036;-89
2022/07/15 09:54:21;;;;;;;1.45;0.50;;;21.80;76.60;;;;;;5073159;28;20051;-90
2022/07/15 09:56:48;;;;;;;1.70;0.70;;;21.80;81.70;;;;;;5057351;28;20085;-89
2022/07/15 09:59:15;;;;;;;1.77;0.60;;;21.90;78.90;;;;;;5049527;28;20055;-89
2022/07/15 10:01:42;;;;;;;1.80;0.50;;;22.00;79.30;;;;;;5053166;28;20105;-88
2022/07/15 10:04:09;;;;;;;1.33;0.60;;;22.00;74.70;;;;;;5053110;28;20039;-90
2022/07/15 10:06:38;;;;;;;1.38;0.50;;;21.80;72.10;;;;;;5045668;28;20042;-89
2022/07/15 10:09:05;;;;;;;2.13;0.70;;;21.50;68.60;;;;;;5037286;28;20048;-88
2022/07/15 10:11:33;;;;;;;1.40;0.50;;;21.50;68.80;;;;;;5056088;28;20410;-89
2022/07/15 10:14:24;;;;;;;0.77;0.40;;;21.50;69.70;;;;;;5055529;28;20406;-90
2022/07/15 10:17:01;;;;;;;2.15;0.70;;;21.70;68.90;;;;;;5069664;28;20070;-88
2022/07/15 10:19:51;;;;;;;0.35;0.35;;;21.90;71.80;;;;;;5056421;28;20073;-89
2022/07/15 10:22:46;;;;;;;1.33;0.40;;;22.30;69.30;;;;;;5048646;28;20045;-83
2022/07/15 10:25:24;;;;;;;1.08;0.50;;;23.00;67.90;;;;;;5055266;28;20043;-82
2022/07/15 10:28:16;;;;;;;1.35;0.30;;;22.80;63.40;;;;;;5075441;28;20051;-83
2022/07/15 10:30:43;;;;;;;0.47;0.40;;;22.90;61.30;;;;;;5053657;28;20117;-82
2022/07/15 10:33:13;;;;;;;0.65;0.50;;;22.60;62.90;;;;;;5089478;28;20044;-83
2022/07/15 10:35:50;;;;;;;0.60;0.30;;;22.50;60.40;;;;;;5049337;28;20385;-83
2022/07/15 10:38:29;;;;;;;1.40;0.32;;;22.40;60.10;;;;;;5055331;28;20083;-82
2022/07/15 10:41:14;;;;;;;0.30;0.30;;;22.40;62.70;;;;;;5061253;28;20047;-83
2022/07/15 10:43:46;;;;;;;0.95;0.40;;;22.40;66.40;;;;;;5067045;28;20406;-83
2022/07/15 10:46:20;;;;;;;1.27;0.52;;;22.50;63.50;;;;;;5057722;28;20402;-82
2022/07/15 10:49:00;;;;;;;1.77;0.50;;;22.30;62.00;;;;;;5062864;28;20086;-83
2022/07/15 10:51:37;;;;;;;1.63;0.55;;;22.40;62.60;;;;;;5056949;28;20047;-83
2022/07/15 10:54:05;;;;;;;1.15;0.40;;;22.40;58.90;;;;;;5049555;28;20498;-83
2022/07/15 10:56:34;;;;;;;1.27;0.65;;;22.10;61.10;;;;;;5065813;28;20040;-82
2022/07/15 10:59:19;;;;;;;1.65;0.52;;;22.00;63.20;;;;;;5057929;28;20063;-82
2022/07/15 11:02:05;;;;;;;1.15;0.40;;;21.50;61.50;;;;;;5041623;28;20040;-82
2022/07/15 11:04:31;;;;;;;1.13;0.63;;;21.20;67.30;;;;;;5051200;28;20131;-84
2022/07/15 11:09:47;;;;;;;1.95;0.70;;;20.90;71.30;;;;;;5063565;28;20040;-90
2022/07/15 11:12:19;;;;;;;1.48;0.50;;;20.70;71.60;;;;;;5062332;28;20036;-89
2022/07/15 11:14:48;;;;;;;4.90;0.90;;;20.50;74.20;;;;;;5052040;28;20032;-89
2022/07/15 11:17:19;;;;;;;1.17;0.70;;;20.60;76.20;;;;;;5069182;28;20517;-88
2022/07/15 11:19:50;;;;;;;1.42;0.50;;;20.70;74.30;;;;;;5066253;28;20060;-87
2022/07/15 11:22:18;;;;;;;0.82;0.60;;;21.00;77.10;;;;;;5054186;28;20047;-88
2022/07/15 11:24:44;;;;;;;0.95;0.60;;;21.60;74.20;;;;;;5055206;28;20042;-90
2022/07/15 11:27:09;;;;;;;1.20;0.50;;;22.10;70.30;;;;;;5053167;28;20127;-89
2022/07/15 11:29:43;;;;;;;0.90;0.50;;;22.50;68.80;;;;;;5047012;28;20075;-89
2022/07/15 11:32:09;;;;;;;1.15;0.43;;;22.90;63.00;;;;;;5063572;28;20472;-90
2022/07/15 11:34:41;;;;;;;1.20;0.57;;;22.80;64.20;;;;;;5065398;28;20432;-90
2022/07/15 11:37:06;;;;;;;1.10;0.60;;;22.60;61.70;;;;;;5067684;28;20047;-89
2022/07/15 11:39:32;;;;;;;2.25;0.50;;;22.50;63.60;;;;;;5070898;28;20238;-90
2022/07/15 11:44:50;;;;;;;2.17;0.70;;;22.20;63.30;;;;;;5065921;28;20052;-91
2022/07/15 11:47:16;;;;;;;3.85;0.70;;;22.00;64.70;;;;;;5049687;28;20046;-90
2022/07/15 11:49:43;;;;;;;1.23;0.60;;;21.80;65.80;;;;;;5053089;28;20059;-90
2022/07/15 11:52:12;;;;;;;0.90;0.80;;;21.60;67.00;;;;;;5076475;28;20047;-89
2022/07/15 11:54:41;;;;;;;2.05;0.73;;;21.80;73.40;;;;;;5049884;28;20119;-89
2022/07/15 11:57:10;;;;;;;2.28;0.65;;;22.30;70.70;;;;;;5049689;28;20032;-90
2022/07/15 11:59:39;;;;;;;2.55;0.70;;;22.50;70.20;;;;;;5065333;28;20028;-89
2022/07/15 12:02:09;;;;;;;1.10;0.90;;;22.50;68.70;;;;;;5068088;28;20040;-89
2022/07/15 12:04:37;;;;;;;3.38;0.90;;;22.70;68.00;;;;;;5072443;28;20104;-89
2022/07/15 12:07:03;;;;;;;1.77;0.70;;;23.10;69.50;;;;;;5066683;28;20410;-90
2022/07/15 12:09:42;;;;;;;0.70;0.38;;;24.00;67.10;;;;;;5052831;28;20041;-89
2022/07/15 12:12:08;;;;;;;1.48;0.70;;;24.40;57.00;;;;;;5060801;28;20052;-88
2022/07/15 12:14:34;;;;;;;1.88;0.80;;;24.20;59.70;;;;;;5048485;28;20078;-89
2022/07/15 12:17:01;;;;;;;1.05;0.60;;;24.10;58.50;;;;;;5050608;28;20040;-89
2022/07/15 12:19:29;;;;;;;1.83;0.60;;;23.70;57.30;;;;;;5043490;28;20044;-88
2022/07/15 12:22:09;;;;;;;0.90;0.60;;;23.40;58.80;;;;;;5046602;28;20036;-88
2022/07/15 12:24:50;;;;;;;2.05;0.93;;;23.00;58.50;;;;;;5049637;28;20122;-87
2022/07/15 12:27:16;;;;;;;1.90;0.60;;;22.70;58.40;;;;;;5039554;28;20031;-89
2022/07/15 12:29:43;;;;;;;1.83;0.68;;;22.50;59.00;;;;;;5040970;28;20116;-87
2022/07/15 12:32:12;;;;;;;2.92;0.60;;;22.40;60.00;;;;;;5061739;28;20040;-88
2022/07/15 12:34:55;;;;;;;1.95;0.50;;;22.30;61.30;;;;;;5089218;28;20024;-88
2022/07/15 12:37:30;;;;;;;2.30;0.73;;;22.20;61.40;;;;;;5076373;28;20123;-88
2022/07/15 12:40:01;;;;;;;1.25;0.60;;;22.10;62.80;;;;;;5056352;28;20043;-88
2022/07/15 12:42:48;;;;;;;1.35;0.70;;;22.10;65.50;;;;;;5063489;28;20040;-88
2022/07/15 12:45:21;;;;;;;3.67;0.80;;;22.10;63.90;;;;;;5066741;28;20037;-88
2022/07/15 12:48:16;;;;;;;3.25;0.73;;;22.00;65.40;;;;;;5047021;28;20055;-88
2022/07/15 12:50:51;;;;;;;4.20;0.70;;;21.80;64.90;;;;;;5049240;28;20522;-89
2022/07/15 12:53:23;;;;;;;0.70;0.60;;;21.90;66.20;;;;;;5059035;28;20542;-88
2022/07/15 12:55:51;;;;;;;1.98;0.90;;;21.90;66.40;;;;;;5049801;28;20047;-88
2022/07/15 12:58:23;;;;;;;1.50;0.70;;;22.00;64.80;;;;;;5043165;28;20490;-88
2022/07/15 13:00:49;;;;;;;2.33;0.70;;;22.20;65.20;;;;;;5043891;28;20040;-90
2022/07/15 13:03:17;;;;;;;1.23;0.60;;;22.80;63.90;;;;;;5042024;28;20482;-90
2022/07/15 13:05:45;;;;;;;2.17;0.60;;;23.20;61.90;;;;;;5039202;28;20579;-88